CheckWX is a tool to help pilots better visualize weather data.  It is not intended as a substitute for an official pre-flight weather briefing.

15:13:17 UTC

DTTJ METAR
Djerba Zarzis International Airport
Djerba, Tunisia
Current

13 mins ago

DTTJ 261500Z 24005KT 210V270 9999 FEW020 SCT026 23/12 Q1007 NOSIG
Observed
May-26 @ 15:00 UTC
Wind
  • 240° at 5 KTS
Visibility
10,000+ meters
Flight Rules
VFR
Cloud Levels
  • Few at 2,000' AGL
  • Scattered at 2,600' AGL
Temperature
23°C / 73°F
Dewpoint
12°C / 54°F
Humidity
50%
Altimeter
29.73" Hg
Pressure
1006.92 hPa
Previous

43 mins ago

DTTJ 261430Z 24006KT 220V280 9999 FEW020 SCT026 24/12 Q1007 NOSIG
Observed
May-26 @ 14:30 UTC
Wind
  • 240° at 6 KTS
Visibility
10,000+ meters
Flight Rules
VFR
Cloud Levels
  • Few at 2,000' AGL
  • Scattered at 2,600' AGL
Temperature
24°C / 75°F
Dewpoint
12°C / 54°F
Humidity
47%
Altimeter
29.73" Hg
Pressure
1006.92 hPa
Previous

1 hour ago

DTTJ 261400Z 23006KT 200V260 9999 FEW023 23/12 Q1007 NOSIG
Observed
May-26 @ 14:00 UTC
Wind
  • 230° at 6 KTS
Visibility
10,000+ meters
Flight Rules
VFR
Cloud Levels
  • Few at 2,300' AGL
Temperature
23°C / 73°F
Dewpoint
12°C / 54°F
Humidity
50%
Altimeter
29.73" Hg
Pressure
1006.92 hPa